sensor_id;sensor_type;location;lat;lon;timestamp;pressure;altitude;pressure_sealevel;temperature;humidity
24762;BME280;12865;51.934;10.330;2023-01-29T00:02:00;100335.66;;;-2.89;100.00
24762;BME280;12865;51.934;10.330;2023-01-29T00:04:46;100330.34;;;-2.84;100.00
24762;BME280;12865;51.934;10.330;2023-01-29T00:07:32;100338.19;;;-2.86;100.00
24762;BME280;12865;51.934;10.330;2023-01-29T00:10:17;100319.88;;;-2.83;100.00
24762;BME280;12865;51.934;10.330;2023-01-29T00:13:03;100322.78;;;-2.99;100.00
24762;BME280;12865;51.934;10.330;2023-01-29T00:15:54;100327.22;;;-3.03;100.00
24762;BME280;12865;51.934;10.330;2023-01-29T00:18:41;100323.59;;;-2.96;100.00
24762;BME280;12865;51.934;10.330;2023-01-29T00:21:27;100309.75;;;-2.99;100.00
24762;BME280;12865;51.934;10.330;2023-01-29T00:24:15;100307.13;;;-2.98;100.00
24762;BME280;12865;51.934;10.330;2023-01-29T00:27:00;100302.75;;;-2.97;100.00
24762;BME280;12865;51.934;10.330;2023-01-29T00:29:46;100300.84;;;-2.88;100.00
24762;BME280;12865;51.934;10.330;2023-01-29T00:32:52;100312.38;;;-3.01;100.00
24762;BME280;12865;51.934;10.330;2023-01-29T00:35:39;100299.50;;;-3.08;100.00
24762;BME280;12865;51.934;10.330;2023-01-29T00:38:25;100301.88;;;-2.96;100.00
24762;BME280;12865;51.934;10.330;2023-01-29T00:41:13;100304.47;;;-2.95;100.00
24762;BME280;12865;51.934;10.330;2023-01-29T00:44:18;100294.94;;;-2.99;100.00
24762;BME280;12865;51.934;10.330;2023-01-29T00:47:22;100301.16;;;-3.04;100.00
24762;BME280;12865;51.934;10.330;2023-01-29T00:50:15;100303.03;;;-3.12;100.00
24762;BME280;12865;51.934;10.330;2023-01-29T00:53:00;100296.91;;;-3.10;100.00
24762;BME280;12865;51.934;10.330;2023-01-29T00:55:46;100293.44;;;-3.09;100.00
24762;BME280;12865;51.934;10.330;2023-01-29T00:58:31;100292.47;;;-3.05;100.00
24762;BME280;12865;51.934;10.330;2023-01-29T01:01:22;100287.97;;;-2.97;100.00
24762;BME280;12865;51.934;10.330;2023-01-29T01:04:27;100281.13;;;-3.02;100.00
24762;BME280;12865;51.934;10.330;2023-01-29T01:07:12;100284.66;;;-3.06;100.00
24762;BME280;12865;51.934;10.330;2023-01-29T01:09:58;100281.94;;;-3.00;100.00
24762;BME280;12865;51.934;10.330;2023-01-29T01:13:04;100276.91;;;-3.09;100.00
24762;BME280;12865;51.934;10.330;2023-01-29T01:15:50;100277.66;;;-3.03;100.00
24762;BME280;12865;51.934;10.330;2023-01-29T01:18:36;100286.34;;;-3.02;100.00
24762;BME280;12865;51.934;10.330;2023-01-29T01:21:22;100292.38;;;-3.00;100.00
24762;BME280;12865;51.934;10.330;2023-01-29T01:24:08;100293.19;;;-2.97;100.00
24762;BME280;12865;51.934;10.330;2023-01-29T01:26:53;100288.63;;;-2.87;100.00
24762;BME280;12865;51.934;10.330;2023-01-29T01:29:39;100297.28;;;-2.85;100.00
24762;BME280;12865;51.934;10.330;2023-01-29T01:32:25;100290.44;;;-2.89;100.00
24762;BME280;12865;51.934;10.330;2023-01-29T01:35:11;100293.94;;;-2.90;100.00
24762;BME280;12865;51.934;10.330;2023-01-29T01:37:59;100295.66;;;-2.91;100.00
24762;BME280;12865;51.934;10.330;2023-01-29T01:40:45;100283.66;;;-2.99;100.00
24762;BME280;12865;51.934;10.330;2023-01-29T01:43:58;100284.41;;;-2.94;100.00
24762;BME280;12865;51.934;10.330;2023-01-29T01:46:44;100268.94;;;-3.02;100.00
24762;BME280;12865;51.934;10.330;2023-01-29T01:49:30;100258.25;;;-2.88;100.00
24762;BME280;12865;51.934;10.330;2023-01-29T01:52:16;100251.38;;;-2.94;100.00
24762;BME280;12865;51.934;10.330;2023-01-29T01:55:04;100258.28;;;-2.91;100.00
24762;BME280;12865;51.934;10.330;2023-01-29T01:57:54;100243.44;;;-2.88;100.00
24762;BME280;12865;51.934;10.330;2023-01-29T02:00:42;100249.28;;;-2.75;100.00
24762;BME280;12865;51.934;10.330;2023-01-29T02:03:30;100243.84;;;-2.66;100.00
24762;BME280;12865;51.934;10.330;2023-01-29T02:06:39;100243.66;;;-2.57;100.00
24762;BME280;12865;51.934;10.330;2023-01-29T02:10:11;100239.06;;;-2.46;100.00
24762;BME280;12865;51.934;10.330;2023-01-29T02:12:57;100238.25;;;-2.48;100.00
24762;BME280;12865;51.934;10.330;2023-01-29T02:15:44;100245.00;;;-2.39;100.00
24762;BME280;12865;51.934;10.330;2023-01-29T02:18:34;100236.38;;;-2.43;100.00
24762;BME280;12865;51.934;10.330;2023-01-29T02:22:11;100237.25;;;-2.42;100.00
24762;BME280;12865;51.934;10.330;2023-01-29T02:34:17;100254.66;;;-2.43;100.00
24762;BME280;12865;51.934;10.330;2023-01-29T02:37:09;100258.09;;;-2.41;100.00
24762;BME280;12865;51.934;10.330;2023-01-29T02:40:11;100262.28;;;-2.33;100.00
24762;BME280;12865;51.934;10.330;2023-01-29T02:43:05;100257.91;;;-2.31;100.00
24762;BME280;12865;51.934;10.330;2023-01-29T02:46:01;100261.88;;;-2.15;100.00
24762;BME280;12865;51.934;10.330;2023-01-29T02:48:58;100268.06;;;-2.19;100.00
24762;BME280;12865;51.934;10.330;2023-01-29T02:51:53;100262.84;;;-2.19;100.00
24762;BME280;12865;51.934;10.330;2023-01-29T02:54:50;100265.47;;;-2.19;100.00
24762;BME280;12865;51.934;10.330;2023-01-29T02:57:42;100260.19;;;-2.18;100.00
24762;BME280;12865;51.934;10.330;2023-01-29T03:00:33;100258.38;;;-2.14;100.00
24762;BME280;12865;51.934;10.330;2023-01-29T03:03:37;100257.53;;;-2.16;100.00
24762;BME280;12865;51.934;10.330;2023-01-29T03:06:30;100249.75;;;-2.18;100.00
24762;BME280;12865;51.934;10.330;2023-01-29T03:09:40;100257.53;;;-2.16;100.00
24762;BME280;12865;51.934;10.330;2023-01-29T03:12:27;100258.44;;;-2.17;100.00
24762;BME280;12865;51.934;10.330;2023-01-29T03:15:24;100260.19;;;-2.18;100.00
24762;BME280;12865;51.934;10.330;2023-01-29T03:18:17;100270.53;;;-2.13;100.00
24762;BME280;12865;51.934;10.330;2023-01-29T03:21:07;100282.88;;;-2.20;100.00
24762;BME280;12865;51.934;10.330;2023-01-29T03:24:18;100280.97;;;-2.12;100.00
24762;BME280;12865;51.934;10.330;2023-01-29T03:27:30;100272.41;;;-2.18;100.00
24762;BME280;12865;51.934;10.330;2023-01-29T03:30:40;100276.63;;;-2.13;100.00
24762;BME280;12865;51.934;10.330;2023-01-29T03:33:49;100270.44;;;-2.10;100.00
24762;BME280;12865;51.934;10.330;2023-01-29T03:36:40;100269.69;;;-2.15;100.00
24762;BME280;12865;51.934;10.330;2023-01-29T03:39:29;100264.31;;;-2.08;100.00
24762;BME280;12865;51.934;10.330;2023-01-29T03:46:15;100262.09;;;-1.89;100.00
24762;BME280;12865;51.934;10.330;2023-01-29T03:49:22;100261.31;;;-1.91;100.00
24762;BME280;12865;51.934;10.330;2023-01-29T03:52:41;100261.06;;;-1.82;100.00
24762;BME280;12865;51.934;10.330;2023-01-29T03:56:00;100266.22;;;-1.79;100.00
24762;BME280;12865;51.934;10.330;2023-01-29T03:58:54;100266.22;;;-1.77;100.00
24762;BME280;12865;51.934;10.330;2023-01-29T04:02:09;100266.97;;;-1.74;100.00
24762;BME280;12865;51.934;10.330;2023-01-29T04:04:55;100260.13;;;-1.78;100.00
24762;BME280;12865;51.934;10.330;2023-01-29T04:07:43;100250.38;;;-1.71;100.00
24762;BME280;12865;51.934;10.330;2023-01-29T04:10:31;100239.06;;;-1.72;100.00
24762;BME280;12865;51.934;10.330;2023-01-29T04:13:20;100237.41;;;-1.76;100.00
24762;BME280;12865;51.934;10.330;2023-01-29T04:16:13;100224.06;;;-1.65;100.00
24762;BME280;12865;51.934;10.330;2023-01-29T04:19:00;100227.41;;;-1.60;100.00
24762;BME280;12865;51.934;10.330;2023-01-29T04:21:48;100228.28;;;-1.60;100.00
24762;BME280;12865;51.934;10.330;2023-01-29T04:24:35;100223.94;;;-1.61;100.00
24762;BME280;12865;51.934;10.330;2023-01-29T04:30:46;100204.72;;;-1.58;100.00
24762;BME280;12865;51.934;10.330;2023-01-29T04:36:57;100203.16;;;-1.65;100.00
24762;BME280;12865;51.934;10.330;2023-01-29T04:39:54;100208.34;;;-1.64;100.00
24762;BME280;12865;51.934;10.330;2023-01-29T04:48:58;100184.81;;;-1.64;100.00
24762;BME280;12865;51.934;10.330;2023-01-29T04:54:45;100172.31;;;-1.52;100.00
24762;BME280;12865;51.934;10.330;2023-01-29T04:57:44;100166.91;;;-1.46;100.00
24762;BME280;12865;51.934;10.330;2023-01-29T05:00:37;100157.97;;;-1.38;100.00
24762;BME280;12865;51.934;10.330;2023-01-29T05:03:25;100151.91;;;-1.40;100.00
24762;BME280;12865;51.934;10.330;2023-01-29T05:06:11;100138.72;;;-1.35;100.00
24762;BME280;12865;51.934;10.330;2023-01-29T05:08:59;100123.78;;;-1.32;100.00
24762;BME280;12865;51.934;10.330;2023-01-29T05:11:46;100121.84;;;-1.25;100.00
24762;BME280;12865;51.934;10.330;2023-01-29T05:14:34;100126.22;;;-1.26;100.00
24762;BME280;12865;51.934;10.330;2023-01-29T05:17:19;100113.00;;;-1.20;100.00
24762;BME280;12865;51.934;10.330;2023-01-29T05:20:07;100114.78;;;-1.22;100.00
24762;BME280;12865;51.934;10.330;2023-01-29T05:22:53;100122.25;;;-1.08;100.00
24762;BME280;12865;51.934;10.330;2023-01-29T05:25:39;100108.09;;;-1.02;100.00
24762;BME280;12865;51.934;10.330;2023-01-29T05:28:24;100115.28;;;-1.09;100.00
24762;BME280;12865;51.934;10.330;2023-01-29T05:31:10;100124.84;;;-1.08;100.00
24762;BME280;12865;51.934;10.330;2023-01-29T05:33:56;100120.16;;;-0.97;100.00
24762;BME280;12865;51.934;10.330;2023-01-29T05:36:41;100122.75;;;-0.97;100.00
24762;BME280;12865;51.934;10.330;2023-01-29T05:39:27;100128.06;;;-0.98;100.00
24762;BME280;12865;51.934;10.330;2023-01-29T05:42:13;100126.28;;;-0.98;100.00
24762;BME280;12865;51.934;10.330;2023-01-29T05:44:58;100140.75;;;-0.85;100.00
24762;BME280;12865;51.934;10.330;2023-01-29T05:47:45;100140.00;;;-0.90;100.00
24762;BME280;12865;51.934;10.330;2023-01-29T05:50:30;100137.56;;;-0.96;100.00
24762;BME280;12865;51.934;10.330;2023-01-29T05:53:16;100141.00;;;-0.94;100.00
24762;BME280;12865;51.934;10.330;2023-01-29T05:56:03;100148.16;;;-0.99;100.00
24762;BME280;12865;51.934;10.330;2023-01-29T05:58:49;100146.13;;;-0.91;100.00
24762;BME280;12865;51.934;10.330;2023-01-29T06:01:35;100153.00;;;-0.87;100.00
24762;BME280;12865;51.934;10.330;2023-01-29T06:04:21;100154.75;;;-0.87;100.00
24762;BME280;12865;51.934;10.330;2023-01-29T06:07:06;100160.03;;;-0.89;100.00
24762;BME280;12865;51.934;10.330;2023-01-29T06:09:52;100172.31;;;-0.91;100.00
24762;BME280;12865;51.934;10.330;2023-01-29T06:12:38;100165.13;;;-0.84;100.00
24762;BME280;12865;51.934;10.330;2023-01-29T06:15:24;100174.81;;;-0.86;100.00
24762;BME280;12865;51.934;10.330;2023-01-29T06:18:10;100168.78;;;-0.90;100.00
24762;BME280;12865;51.934;10.330;2023-01-29T06:21:00;100181.16;;;-0.95;100.00
24762;BME280;12865;51.934;10.330;2023-01-29T06:23:51;100184.59;;;-0.93;100.00
24762;BME280;12865;51.934;10.330;2023-01-29T06:26:37;100193.09;;;-0.85;100.00
24762;BME280;12865;51.934;10.330;2023-01-29T06:29:22;100209.00;;;-0.92;100.00
24762;BME280;12865;51.934;10.330;2023-01-29T06:32:08;100219.34;;;-0.88;100.00
24762;BME280;12865;51.934;10.330;2023-01-29T06:34:54;100215.81;;;-0.87;100.00
24762;BME280;12865;51.934;10.330;2023-01-29T06:37:39;100207.75;;;-0.79;100.00
24762;BME280;12865;51.934;10.330;2023-01-29T06:40:25;100203.47;;;-0.82;100.00
24762;BME280;12865;51.934;10.330;2023-01-29T06:43:11;100218.47;;;-0.88;100.00
24762;BME280;12865;51.934;10.330;2023-01-29T06:45:56;100214.19;;;-0.91;100.00
24762;BME280;12865;51.934;10.330;2023-01-29T06:48:42;100212.13;;;-0.80;100.00
24762;BME280;12865;51.934;10.330;2023-01-29T06:51:28;100184.50;;;-0.90;100.00
24762;BME280;12865;51.934;10.330;2023-01-29T06:54:13;100185.50;;;-0.94;100.00
24762;BME280;12865;51.934;10.330;2023-01-29T06:56:59;100181.88;;;-0.90;100.00
24762;BME280;12865;51.934;10.330;2023-01-29T06:59:45;100168.91;;;-0.93;100.00
24762;BME280;12865;51.934;10.330;2023-01-29T07:02:30;100173.13;;;-0.89;100.00
24762;BME280;12865;51.934;10.330;2023-01-29T07:05:16;100166.13;;;-0.88;100.00
24762;BME280;12865;51.934;10.330;2023-01-29T07:08:02;100187.94;;;-0.88;100.00
24762;BME280;12865;51.934;10.330;2023-01-29T07:10:48;100190.56;;;-0.88;100.00
24762;BME280;12865;51.934;10.330;2023-01-29T07:13:34;100199.31;;;-0.89;100.00
24762;BME280;12865;51.934;10.330;2023-01-29T07:16:20;100198.22;;;-0.82;100.00
24762;BME280;12865;51.934;10.330;2023-01-29T07:19:06;100181.63;;;-0.81;100.00
24762;BME280;12865;51.934;10.330;2023-01-29T07:21:51;100176.56;;;-0.87;100.00
24762;BME280;12865;51.934;10.330;2023-01-29T07:24:37;100180.72;;;-0.80;100.00
24762;BME280;12865;51.934;10.330;2023-01-29T07:27:23;100172.69;;;-0.73;100.00
24762;BME280;12865;51.934;10.330;2023-01-29T07:30:09;100192.56;;;-0.68;100.00
24762;BME280;12865;51.934;10.330;2023-01-29T07:32:55;100204.06;;;-0.72;100.00
24762;BME280;12865;51.934;10.330;2023-01-29T07:35:41;100195.38;;;-0.74;100.00
24762;BME280;12865;51.934;10.330;2023-01-29T07:38:27;100190.00;;;-0.69;100.00
24762;BME280;12865;51.934;10.330;2023-01-29T07:41:13;100209.00;;;-0.63;100.00
24762;BME280;12865;51.934;10.330;2023-01-29T07:43:59;100225.56;;;-0.62;100.00
24762;BME280;12865;51.934;10.330;2023-01-29T07:46:44;100230.88;;;-0.64;100.00
24762;BME280;12865;51.934;10.330;2023-01-29T07:49:30;100245.09;;;-0.72;100.00
24762;BME280;12865;51.934;10.330;2023-01-29T07:52:15;100246.25;;;-0.53;100.00
24762;BME280;12865;51.934;10.330;2023-01-29T07:55:01;100227.22;;;-0.58;100.00
24762;BME280;12865;51.934;10.330;2023-01-29T07:57:47;100219.25;;;-0.55;100.00
24762;BME280;12865;51.934;10.330;2023-01-29T08:00:39;100207.78;;;-0.51;100.00
24762;BME280;12865;51.934;10.330;2023-01-29T08:03:24;100190.50;;;-0.57;100.00
24762;BME280;12865;51.934;10.330;2023-01-29T08:06:10;100191.28;;;-0.55;100.00
24762;BME280;12865;51.934;10.330;2023-01-29T08:08:56;100176.38;;;-0.51;100.00
24762;BME280;12865;51.934;10.330;2023-01-29T08:11:41;100176.16;;;-0.45;100.00
24762;BME280;12865;51.934;10.330;2023-01-29T08:14:27;100180.50;;;-0.44;100.00
24762;BME280;12865;51.934;10.330;2023-01-29T08:17:13;100178.56;;;-0.37;100.00
24762;BME280;12865;51.934;10.330;2023-01-29T08:19:59;100176.78;;;-0.37;100.00
24762;BME280;12865;51.934;10.330;2023-01-29T08:22:45;100160.34;;;-0.42;100.00
24762;BME280;12865;51.934;10.330;2023-01-29T08:25:31;100145.97;;;-0.29;100.00
24762;BME280;12865;51.934;10.330;2023-01-29T08:28:17;100136.28;;;-0.27;100.00
24762;BME280;12865;51.934;10.330;2023-01-29T08:31:02;100145.00;;;-0.26;100.00
24762;BME280;12865;51.934;10.330;2023-01-29T08:33:48;100136.91;;;-0.19;100.00
24762;BME280;12865;51.934;10.330;2023-01-29T08:36:34;100137.13;;;-0.26;100.00
24762;BME280;12865;51.934;10.330;2023-01-29T08:39:20;100144.81;;;-0.20;100.00
24762;BME280;12865;51.934;10.330;2023-01-29T08:42:05;100136.91;;;-0.19;100.00
24762;BME280;12865;51.934;10.330;2023-01-29T08:44:51;100151.72;;;-0.18;100.00
24762;BME280;12865;51.934;10.330;2023-01-29T08:47:36;100157.78;;;-0.16;100.00
24762;BME280;12865;51.934;10.330;2023-01-29T08:50:22;100152.72;;;-0.22;100.00
24762;BME280;12865;51.934;10.330;2023-01-29T08:53:08;100143.13;;;-0.21;100.00
24762;BME280;12865;51.934;10.330;2023-01-29T08:55:54;100144.88;;;-0.22;100.00
24762;BME280;12865;51.934;10.330;2023-01-29T08:58:40;100150.00;;;-0.19;100.00
24762;BME280;12865;51.934;10.330;2023-01-29T09:01:25;100152.66;;;-0.20;100.00
24762;BME280;12865;51.934;10.330;2023-01-29T09:04:11;100154.41;;;-0.21;100.00
24762;BME280;12865;51.934;10.330;2023-01-29T09:06:56;100150.00;;;-0.19;100.00
24762;BME280;12865;51.934;10.330;2023-01-29T09:09:42;100146.69;;;-0.24;100.00
24762;BME280;12865;51.934;10.330;2023-01-29T09:12:28;100150.16;;;-0.23;100.00
24762;BME280;12865;51.934;10.330;2023-01-29T09:15:14;100151.22;;;-0.29;100.00
24762;BME280;12865;51.934;10.330;2023-01-29T09:18:02;100145.16;;;-0.31;100.00
24762;BME280;12865;51.934;10.330;2023-01-29T09:20:48;100137.91;;;-0.23;100.00
24762;BME280;12865;51.934;10.330;2023-01-29T09:23:34;100121.03;;;-0.14;100.00
24762;BME280;12865;51.934;10.330;2023-01-29T09:26:20;100121.03;;;-0.14;100.00
24762;BME280;12865;51.934;10.330;2023-01-29T09:29:07;100118.13;;;-0.07;100.00
24762;BME280;12865;51.934;10.330;2023-01-29T09:31:54;100120.38;;;0.06;100.00
24762;BME280;12865;51.934;10.330;2023-01-29T09:34:39;100117.53;;;0.12;100.00
24762;BME280;12865;51.934;10.330;2023-01-29T09:37:25;100114.47;;;0.24;100.00
24762;BME280;12865;51.934;10.330;2023-01-29T09:43:13;100089.75;;;0.31;100.00
24762;BME280;12865;51.934;10.330;2023-01-29T09:46:06;100086.31;;;0.29;100.00
24762;BME280;12865;51.934;10.330;2023-01-29T09:49:03;100079.41;;;0.28;100.00
24762;BME280;12865;51.934;10.330;2023-01-29T09:51:56;100084.28;;;0.37;100.00
24762;BME280;12865;51.934;10.330;2023-01-29T09:54:52;100073.03;;;0.35;100.00
24762;BME280;12865;51.934;10.330;2023-01-29T09:57:43;100081.56;;;0.40;100.00
24762;BME280;12865;51.934;10.330;2023-01-29T10:00:36;100064.16;;;0.37;100.00
24762;BME280;12865;51.934;10.330;2023-01-29T10:03:30;100077.31;;;0.36;100.00
24762;BME280;12865;51.934;10.330;2023-01-29T10:06:36;100069.94;;;0.47;100.00
24762;BME280;12865;51.934;10.330;2023-01-29T10:24:37;100063.06;;;0.68;100.00
24762;BME280;12865;51.934;10.330;2023-01-29T10:27:34;100056.03;;;0.68;100.00
24762;BME280;12865;51.934;10.330;2023-01-29T10:30:34;100055.50;;;0.82;100.00
24762;BME280;12865;51.934;10.330;2023-01-29T10:33:37;100050.53;;;0.98;100.00
24762;BME280;12865;51.934;10.330;2023-01-29T10:36:37;100058.22;;;1.02;100.00
24762;BME280;12865;51.934;10.330;2023-01-29T10:39:29;100056.88;;;1.14;100.00
24762;BME280;12865;51.934;10.330;2023-01-29T10:42:29;100044.75;;;1.11;100.00
24762;BME280;12865;51.934;10.330;2023-01-29T10:54:59;100022.56;;;1.18;100.00
24762;BME280;12865;51.934;10.330;2023-01-29T10:58:17;100016.72;;;1.12;100.00
24762;BME280;12865;51.934;10.330;2023-01-29T11:01:10;100014.88;;;1.14;100.00
24762;BME280;12865;51.934;10.330;2023-01-29T11:03:56;100014.50;;;1.23;100.00
24762;BME280;12865;51.934;10.330;2023-01-29T11:06:44;100019.16;;;1.16;100.00
24762;BME280;12865;51.934;10.330;2023-01-29T11:12:21;100005.81;;;1.21;100.00
24762;BME280;12865;51.934;10.330;2023-01-29T11:18:02;100006.25;;;1.32;100.00
24762;BME280;12865;51.934;10.330;2023-01-29T11:20:59;100002.69;;;1.33;100.00
24762;BME280;12865;51.934;10.330;2023-01-29T11:23:46;100000.56;;;1.43;100.00
24762;BME280;12865;51.934;10.330;2023-01-29T11:26:35;99996.03;;;1.46;100.00
24762;BME280;12865;51.934;10.330;2023-01-29T11:29:28;99993.22;;;1.51;100.00
24762;BME280;12865;51.934;10.330;2023-01-29T11:32:28;99985.81;;;1.61;100.00
24762;BME280;12865;51.934;10.330;2023-01-29T11:38:07;99959.38;;;1.64;100.00
24762;BME280;12865;51.934;10.330;2023-01-29T11:41:14;99959.66;;;1.57;100.00
24762;BME280;12865;51.934;10.330;2023-01-29T11:44:16;99944.63;;;1.61;100.00
24762;BME280;12865;51.934;10.330;2023-01-29T11:49:56;99944.13;;;1.72;100.00
24762;BME280;12865;51.934;10.330;2023-01-29T11:52:42;99950.72;;;1.82;100.00
24762;BME280;12865;51.934;10.330;2023-01-29T11:55:34;99939.25;;;2.03;100.00
24762;BME280;12865;51.934;10.330;2023-01-29T11:58:27;99946.06;;;2.07;100.00
24762;BME280;12865;51.934;10.330;2023-01-29T12:01:17;99933.50;;;2.14;100.00
24762;BME280;12865;51.934;10.330;2023-01-29T12:04:19;99924.06;;;1.89;100.00
24762;BME280;12865;51.934;10.330;2023-01-29T12:07:12;99938.06;;;1.90;100.00
24762;BME280;12865;51.934;10.330;2023-01-29T12:10:00;99933.28;;;1.79;100.00
24762;BME280;12865;51.934;10.330;2023-01-29T12:12:45;99930.94;;;1.73;100.00
24762;BME280;12865;51.934;10.330;2023-01-29T12:15:31;99927.13;;;1.80;100.00
24762;BME280;12865;51.934;10.330;2023-01-29T12:18:57;99931.63;;;1.77;100.00
24762;BME280;12865;51.934;10.330;2023-01-29T12:21:56;99932.25;;;1.63;100.00
24762;BME280;12865;51.934;10.330;2023-01-29T12:24:48;99921.19;;;1.75;100.00
24762;BME280;12865;51.934;10.330;2023-01-29T12:27:56;99910.38;;;1.63;100.00
24762;BME280;12865;51.934;10.330;2023-01-29T12:34:23;99896.94;;;1.69;100.00
24762;BME280;12865;51.934;10.330;2023-01-29T12:37:18;99890.13;;;1.65;100.00
24762;BME280;12865;51.934;10.330;2023-01-29T12:40:13;99890.13;;;1.65;100.00
24762;BME280;12865;51.934;10.330;2023-01-29T12:43:04;99883.91;;;1.67;100.00
24762;BME280;12865;51.934;10.330;2023-01-29T12:45:53;99875.69;;;1.54;100.00
24762;BME280;12865;51.934;10.330;2023-01-29T12:48:41;99870.56;;;1.51;100.00
24762;BME280;12865;51.934;10.330;2023-01-29T12:51:39;99875.25;;;1.45;100.00
24762;BME280;12865;51.934;10.330;2023-01-29T12:54:52;99884.19;;;1.61;100.00
24762;BME280;12865;51.934;10.330;2023-01-29T13:00:39;99873.53;;;1.24;100.00
24762;BME280;12865;51.934;10.330;2023-01-29T13:03:41;99877.13;;;1.41;100.00
24762;BME280;12865;51.934;10.330;2023-01-29T13:06:34;99891.34;;;1.37;100.00
24762;BME280;12865;51.934;10.330;2023-01-29T13:09:29;99884.16;;;1.41;100.00
24762;BME280;12865;51.934;10.330;2023-01-29T13:12:19;99886.13;;;1.36;100.00
24762;BME280;12865;51.934;10.330;2023-01-29T13:15:16;99885.22;;;1.37;100.00
24762;BME280;12865;51.934;10.330;2023-01-29T13:21:20;99881.16;;;1.30;100.00
24762;BME280;12865;51.934;10.330;2023-01-29T13:24:19;99884.16;;;1.21;100.00
24762;BME280;12865;51.934;10.330;2023-01-29T13:27:05;99886.13;;;1.15;100.00
24762;BME280;12865;51.934;10.330;2023-01-29T13:29:53;99887.00;;;1.16;100.00
24762;BME280;12865;51.934;10.330;2023-01-29T13:32:40;99877.13;;;1.01;100.00
24762;BME280;12865;51.934;10.330;2023-01-29T13:35:25;99868.81;;;1.11;100.00
24762;BME280;12865;51.934;10.330;2023-01-29T13:38:23;99876.16;;;1.03;100.00
24762;BME280;12865;51.934;10.330;2023-01-29T13:41:10;99867.97;;;1.11;100.00
24762;BME280;12865;51.934;10.330;2023-01-29T13:43:55;99869.84;;;1.07;100.00
24762;BME280;12865;51.934;10.330;2023-01-29T13:46:47;99869.53;;;1.15;100.00
24762;BME280;12865;51.934;10.330;2023-01-29T13:49:43;99858.22;;;1.13;100.00
24762;BME280;12865;51.934;10.330;2023-01-29T13:53:03;99849.69;;;1.08;100.00
24762;BME280;12865;51.934;10.330;2023-01-29T13:55:49;99856.78;;;1.06;100.00
24762;BME280;12865;51.934;10.330;2023-01-29T14:04:31;99834.59;;;1.13;100.00
24762;BME280;12865;51.934;10.330;2023-01-29T14:07:42;99836.38;;;1.12;100.00
24762;BME280;12865;51.934;10.330;2023-01-29T14:10:35;99816.31;;;1.11;100.00
24762;BME280;12865;51.934;10.330;2023-01-29T14:18:59;99809.78;;;1.00;100.00
24762;BME280;12865;51.934;10.330;2023-01-29T14:21:48;99813.41;;;0.97;100.00
24762;BME280;12865;51.934;10.330;2023-01-29T14:24:34;99810.59;;;1.02;100.00
24762;BME280;12865;51.934;10.330;2023-01-29T14:27:22;99813.00;;;1.06;100.00
24762;BME280;12865;51.934;10.330;2023-01-29T14:30:12;99813.84;;;1.07;100.00
24762;BME280;12865;51.934;10.330;2023-01-29T14:33:01;99810.72;;;1.19;100.00
24762;BME280;12865;51.934;10.330;2023-01-29T14:35:51;99808.34;;;1.13;100.00
24762;BME280;12865;51.934;10.330;2023-01-29T14:38:39;99803.09;;;1.13;100.00
24762;BME280;12865;51.934;10.330;2023-01-29T14:41:32;99808.75;;;1.04;100.00
24762;BME280;12865;51.934;10.330;2023-01-29T14:56:14;99810.47;;;1.05;100.00
24762;BME280;12865;51.934;10.330;2023-01-29T15:02:22;99807.97;;;1.02;100.00
24762;BME280;12865;51.934;10.330;2023-01-29T15:05:15;99812.09;;;1.07;100.00
24762;BME280;12865;51.934;10.330;2023-01-29T15:08:11;99803.41;;;1.05;100.00
24762;BME280;12865;51.934;10.330;2023-01-29T15:11:05;99799.97;;;1.05;100.00
24762;BME280;12865;51.934;10.330;2023-01-29T15:18:19;99783.16;;;1.09;100.00
24762;BME280;12865;51.934;10.330;2023-01-29T15:21:11;99779.09;;;1.02;100.00
24762;BME280;12865;51.934;10.330;2023-01-29T15:24:05;99782.34;;;1.07;100.00
24762;BME280;12865;51.934;10.330;2023-01-29T15:26:52;99772.19;;;0.99;100.00
24762;BME280;12865;51.934;10.330;2023-01-29T15:29:40;99762.69;;;0.97;100.00
24762;BME280;12865;51.934;10.330;2023-01-29T15:32:37;99758.94;;;1.02;100.00
24762;BME280;12865;51.934;10.330;2023-01-29T15:35:28;99752.72;;;1.05;100.00
24762;BME280;12865;51.934;10.330;2023-01-29T15:38:18;99752.56;;;1.08;100.00
24762;BME280;12865;51.934;10.330;2023-01-29T15:41:19;99745.94;;;0.99;100.00
24762;BME280;12865;51.934;10.330;2023-01-29T15:44:18;99737.66;;;1.08;100.00
24762;BME280;12865;51.934;10.330;2023-01-29T15:47:04;99735.31;;;1.02;100.00
24762;BME280;12865;51.934;10.330;2023-01-29T15:49:50;99731.81;;;1.02;100.00
24762;BME280;12865;51.934;10.330;2023-01-29T15:52:37;99731.09;;;0.98;100.00
24762;BME280;12865;51.934;10.330;2023-01-29T15:55:23;99725.78;;;1.00;100.00
24762;BME280;12865;51.934;10.330;2023-01-29T15:58:19;99724.94;;;0.99;100.00
24762;BME280;12865;51.934;10.330;2023-01-29T16:01:07;99712.81;;;0.97;100.00
24762;BME280;12865;51.934;10.330;2023-01-29T16:03:53;99720.41;;;1.03;100.00
24762;BME280;12865;51.934;10.330;2023-01-29T16:06:40;99721.44;;;0.99;100.00
24762;BME280;12865;51.934;10.330;2023-01-29T16:09:27;99722.41;;;0.98;100.00
24762;BME280;12865;51.934;10.330;2023-01-29T16:12:13;99714.59;;;0.96;100.00
24762;BME280;12865;51.934;10.330;2023-01-29T16:15:01;99708.47;;;0.96;100.00
24762;BME280;12865;51.934;10.330;2023-01-29T16:17:48;99709.44;;;0.93;100.00
24762;BME280;12865;51.934;10.330;2023-01-29T16:20:45;99706.19;;;0.88;100.00
24762;BME280;12865;51.934;10.330;2023-01-29T16:23:39;99714.84;;;0.90;100.00
24762;BME280;12865;51.934;10.330;2023-01-29T16:26:37;99708.59;;;0.93;100.00
24762;BME280;12865;51.934;10.330;2023-01-29T16:29:29;99701.34;;;0.79;100.00